createdAt,value
2022-09-26T00:01:15.075Z,100082.00
2022-09-26T00:03:50.769Z,100079.38
2022-09-26T00:06:18.054Z,100074.09
2022-09-26T00:08:46.660Z,100072.41
2022-09-26T00:11:16.337Z,100077.28
2022-09-26T00:13:43.792Z,100076.34
2022-09-26T00:16:12.002Z,100074.78
2022-09-26T00:18:39.535Z,100064.84
2022-09-26T00:21:12.366Z,100074.78
2022-09-26T00:23:40.137Z,100078.81
2022-09-26T00:26:07.937Z,100068.03
2022-09-26T00:28:35.108Z,100065.28
2022-09-26T00:31:06.465Z,100056.00
2022-09-26T00:33:33.602Z,100064.94
2022-09-26T00:36:01.011Z,100063.59
2022-09-26T00:38:28.102Z,100062.44
2022-09-26T00:40:55.330Z,100060.00
2022-09-26T00:43:42.743Z,100056.03
2022-09-26T00:46:34.684Z,100056.25
2022-09-26T00:49:04.758Z,100057.63
2022-09-26T00:51:34.443Z,100056.50
2022-09-26T00:54:01.832Z,100057.56
2022-09-26T00:56:33.861Z,100058.47
2022-09-26T00:59:04.873Z,100057.13
2022-09-26T01:01:31.960Z,100049.31
2022-09-26T01:03:59.652Z,100049.78
2022-09-26T01:06:26.727Z,100041.03
2022-09-26T01:08:58.572Z,100037.75
2022-09-26T01:11:26.213Z,100028.38
2022-09-26T01:13:53.744Z,100041.03
2022-09-26T01:16:20.922Z,100040.06
2022-09-26T01:18:48.367Z,100031.09
2022-09-26T01:21:30.617Z,100031.19
2022-09-26T01:24:00.584Z,100030.06
2022-09-26T01:26:52.317Z,100028.47
2022-09-26T01:29:31.825Z,100026.88
2022-09-26T01:32:46.531Z,100027.22
2022-09-26T01:35:13.510Z,100019.31
2022-09-26T01:37:50.197Z,100013.41
2022-09-26T01:40:25.325Z,100013.06
2022-09-26T01:42:59.976Z,100014.25
2022-09-26T01:45:33.580Z,100012.00
2022-09-26T01:48:16.888Z,100014.78
2022-09-26T01:50:50.041Z,100006.88
2022-09-26T01:53:31.404Z,99999.66
2022-09-26T01:56:10.779Z,100001.81
2022-09-26T01:58:44.754Z,100001.06
2022-09-26T02:01:14.352Z,100010.78
2022-09-26T02:03:51.501Z,100002.16
2022-09-26T02:06:25.346Z,100000.22
2022-09-26T02:09:03.344Z,99996.75
2022-09-26T02:11:30.476Z,99990.50
2022-09-26T02:14:03.700Z,99984.69
2022-09-26T02:16:42.316Z,99983.84
2022-09-26T02:19:15.906Z,99978.91
2022-09-26T02:21:43.705Z,99977.13
2022-09-26T02:24:10.782Z,99973.78
2022-09-26T02:26:37.864Z,99978.28
2022-09-26T02:29:06.633Z,99974.69
2022-09-26T02:31:37.018Z,99972.94
2022-09-26T02:34:04.811Z,99974.69
2022-09-26T02:36:33.571Z,99968.59
2022-09-26T02:39:01.323Z,99970.50
2022-09-26T02:41:35.015Z,99958.16
2022-09-26T02:44:29.761Z,99957.13
2022-09-26T02:47:45.359Z,99953.94
2022-09-26T02:50:25.470Z,99949.53
2022-09-26T02:53:20.169Z,99949.53
2022-09-26T02:56:04.734Z,99942.56
2022-09-26T02:58:44.531Z,99942.34
2022-09-26T03:01:20.636Z,99939.38
2022-09-26T03:03:52.698Z,99942.84
2022-09-26T03:06:25.776Z,99945.25
2022-09-26T03:08:53.372Z,99939.88
2022-09-26T03:11:23.117Z,99939.88
2022-09-26T03:13:52.890Z,99943.47
2022-09-26T03:16:21.522Z,99936.25
2022-09-26T03:18:57.307Z,99936.25
2022-09-26T03:21:25.450Z,99924.59
2022-09-26T03:23:52.561Z,99933.72
2022-09-26T03:26:24.526Z,99935.44
2022-09-26T03:28:52.873Z,99937.09
2022-09-26T03:31:22.094Z,99938.53
2022-09-26T03:33:49.288Z,99931.94
2022-09-26T03:36:16.424Z,99930.34
2022-09-26T03:38:43.517Z,99920.53
2022-09-26T03:41:10.991Z,99925.19
2022-09-26T03:43:38.056Z,99916.31
2022-09-26T03:46:07.012Z,99914.66
2022-09-26T03:48:34.315Z,99914.75
2022-09-26T03:51:05.438Z,99908.88
2022-09-26T03:53:33.552Z,99910.66
2022-09-26T03:56:09.236Z,99913.41
2022-09-26T03:58:36.535Z,99915.72
2022-09-26T04:01:08.209Z,99908.75
2022-09-26T04:03:39.879Z,99908.03
2022-09-26T04:06:10.997Z,99905.50
2022-09-26T04:08:39.939Z,99905.38
2022-09-26T04:11:10.250Z,99907.81
2022-09-26T04:13:51.182Z,99901.56
2022-09-26T04:16:20.341Z,99895.25
2022-09-26T04:18:47.816Z,99889.63
2022-09-26T04:21:15.651Z,99892.75
2022-09-26T04:23:43.957Z,99892.63
2022-09-26T04:26:13.160Z,99894.06
2022-09-26T04:28:40.899Z,99884.38
2022-09-26T04:31:09.037Z,99896.84
2022-09-26T04:33:37.303Z,99885.81
2022-09-26T04:36:06.594Z,99882.44
2022-09-26T04:38:34.063Z,99886.16
2022-09-26T04:41:09.012Z,99887.94
2022-09-26T04:43:36.367Z,99889.50
2022-09-26T04:46:08.655Z,99887.34
2022-09-26T04:48:36.202Z,99878.59
2022-09-26T04:51:07.287Z,99881.72
2022-09-26T04:53:35.329Z,99882.78
2022-09-26T04:56:02.612Z,99883.38
2022-09-26T04:58:29.876Z,99883.28
2022-09-26T05:01:02.165Z,99886.16
2022-09-26T05:03:29.535Z,99881.56
2022-09-26T05:05:56.681Z,99881.44
2022-09-26T05:08:23.759Z,99882.19
2022-09-26T05:10:55.700Z,99880.94
2022-09-26T05:13:23.922Z,99867.28
2022-09-26T05:15:54.212Z,99876.09
2022-09-26T05:18:23.305Z,99874.19
2022-09-26T05:20:50.836Z,99870.72
2022-09-26T05:23:44.382Z,99866.72
2022-09-26T05:26:27.281Z,99875.59
2022-09-26T05:29:06.903Z,99874.97
2022-09-26T05:31:37.850Z,99869.59
2022-09-26T05:34:18.454Z,99870.31
2022-09-26T05:36:46.943Z,99874.28
2022-09-26T05:39:32.197Z,99870.31
2022-09-26T05:41:59.494Z,99877.50
2022-09-26T05:44:27.561Z,99876.75
2022-09-26T05:46:56.761Z,99875.94
2022-09-26T05:49:23.860Z,99869.34
2022-09-26T05:51:51.112Z,99873.91
2022-09-26T05:54:18.230Z,99860.34
2022-09-26T05:56:45.412Z,99865.50
2022-09-26T05:59:12.611Z,99866.97
2022-09-26T06:01:39.785Z,99868.44
2022-09-26T06:04:06.969Z,99874.00
2022-09-26T06:06:34.321Z,99863.59
2022-09-26T06:09:03.265Z,99864.75
2022-09-26T06:11:33.374Z,99866.22
2022-09-26T06:14:00.908Z,99866.00
2022-09-26T06:16:28.838Z,99866.28
2022-09-26T06:18:56.433Z,99863.91
2022-09-26T06:21:23.660Z,99862.84
2022-09-26T06:23:50.764Z,99861.25
2022-09-26T06:26:23.546Z,99858.41
2022-09-26T06:28:56.863Z,99855.91
2022-09-26T06:31:25.649Z,99852.78
2022-09-26T06:33:55.304Z,99852.56
2022-09-26T06:36:23.590Z,99860.13
2022-09-26T06:38:51.123Z,99853.19
2022-09-26T06:41:18.279Z,99843.81
2022-09-26T06:43:45.946Z,99846.56
2022-09-26T06:46:13.876Z,99843.13
2022-09-26T06:48:41.021Z,99842.44
2022-09-26T06:51:08.832Z,99850.72
2022-09-26T06:53:36.299Z,99841.75
2022-09-26T06:56:03.457Z,99836.69
2022-09-26T06:58:30.620Z,99840.91
2022-09-26T07:01:01.003Z,99833.59
2022-09-26T07:03:28.657Z,99830.00
2022-09-26T07:05:56.570Z,99828.19
2022-09-26T07:08:43.376Z,99830.75
2022-09-26T07:11:32.844Z,99827.38
2022-09-26T07:14:02.125Z,99830.16
2022-09-26T07:16:30.172Z,99829.09
2022-09-26T07:18:57.347Z,99827.53
2022-09-26T07:21:24.413Z,99832.31
2022-09-26T07:23:51.492Z,99834.97
2022-09-26T07:26:18.597Z,99826.78
2022-09-26T07:28:47.753Z,99827.16
2022-09-26T07:31:18.072Z,99818.66
2022-09-26T07:33:45.198Z,99820.44
2022-09-26T07:36:12.281Z,99812.03
2022-09-26T07:38:39.396Z,99813.00
2022-09-26T07:41:10.433Z,99814.81
2022-09-26T07:46:43.371Z,99820.06
2022-09-26T07:49:29.037Z,99809.72
2022-09-26T07:51:56.844Z,99815.94
2022-09-26T07:54:24.097Z,99814.72
2022-09-26T07:56:51.352Z,99813.03
2022-09-26T07:59:18.656Z,99817.22
2022-09-26T08:01:46.265Z,99820.22
2022-09-26T08:04:14.110Z,99819.09
2022-09-26T08:06:41.410Z,99822.50
2022-09-26T08:09:08.851Z,99826.13
2022-09-26T08:11:37.482Z,99828.19
2022-09-26T08:14:04.726Z,99817.00
2022-09-26T08:16:31.828Z,99822.16
2022-09-26T08:18:59.029Z,99822.66
2022-09-26T08:21:26.079Z,99818.66
2022-09-26T08:23:53.872Z,99814.50
2022-09-26T08:26:24.163Z,99812.72
2022-09-26T08:28:51.283Z,99812.19
2022-09-26T08:31:18.696Z,99808.72
2022-09-26T08:33:45.880Z,99805.81
2022-09-26T08:36:15.335Z,99811.19
2022-09-26T08:38:42.516Z,99807.16
2022-09-26T08:41:33.578Z,99802.47
2022-09-26T08:44:29.972Z,99789.69
2022-09-26T08:47:05.423Z,99796.94
2022-09-26T08:49:55.087Z,99801.47
2022-09-26T08:52:29.502Z,99792.94
2022-09-26T08:55:06.545Z,99784.34
2022-09-26T08:57:48.527Z,99785.88
2022-09-26T09:00:24.957Z,99770.16
2022-09-26T09:03:01.801Z,99781.28
2022-09-26T09:05:32.935Z,99781.22
2022-09-26T09:08:01.566Z,99778.59
2022-09-26T09:10:42.016Z,99772.03
2022-09-26T09:13:41.327Z,99775.00
2022-09-26T09:16:51.658Z,99767.22
2022-09-26T09:19:52.302Z,99770.78
2022-09-26T09:22:28.571Z,99767.16
2022-09-26T09:24:59.468Z,99771.75
2022-09-26T09:27:55.023Z,99751.84
2022-09-26T09:30:48.125Z,99758.38
2022-09-26T09:33:22.266Z,99760.88
2022-09-26T09:35:57.589Z,99756.47
2022-09-26T09:38:29.314Z,99751.97
2022-09-26T09:41:14.972Z,99755.34
2022-09-26T09:43:56.127Z,99748.91
2022-09-26T09:46:29.109Z,99755.72
2022-09-26T09:49:00.495Z,99756.31
2022-09-26T09:51:56.863Z,99744.88
2022-09-26T09:54:39.130Z,99740.81
2022-09-26T09:57:22.051Z,99739.00
2022-09-26T10:00:18.165Z,99731.31
2022-09-26T10:03:02.250Z,99724.09
2022-09-26T10:05:45.266Z,99727.31
2022-09-26T10:08:22.450Z,99717.13
2022-09-26T10:11:24.096Z,99716.69
2022-09-26T10:13:56.046Z,99715.84
2022-09-26T10:16:23.571Z,99722.94
2022-09-26T10:19:03.732Z,99720.13
2022-09-26T10:21:33.307Z,99710.13
2022-09-26T10:24:02.109Z,99699.13
2022-09-26T10:26:37.031Z,99696.56
2022-09-26T10:29:21.738Z,99687.50
2022-09-26T10:31:55.554Z,99695.06
2022-09-26T10:34:31.056Z,99685.13
2022-09-26T10:37:18.196Z,99686.41
2022-09-26T10:40:11.617Z,99689.31
2022-09-26T10:42:38.947Z,99687.09
2022-09-26T10:45:13.569Z,99683.06
2022-09-26T10:47:41.049Z,99671.75
2022-09-26T10:50:12.076Z,99686.25
2022-09-26T10:52:49.728Z,99679.44
2022-09-26T10:55:19.997Z,99672.03
2022-09-26T10:57:50.902Z,99666.16
2022-09-26T11:00:19.416Z,99675.78
2022-09-26T11:02:51.726Z,99675.56
2022-09-26T11:05:38.421Z,99664.38
2022-09-26T11:08:06.725Z,99658.66
2022-09-26T11:10:36.195Z,99663.25
2022-09-26T11:13:18.595Z,99669.53
2022-09-26T11:16:02.670Z,99657.16
2022-09-26T11:18:44.811Z,99652.44
2022-09-26T11:21:28.768Z,99651.72
2022-09-26T11:24:03.409Z,99654.97
2022-09-26T11:27:01.659Z,99651.19
2022-09-26T11:29:41.779Z,99645.88
2022-09-26T11:32:14.571Z,99645.72
2022-09-26T11:34:41.700Z,99643.59
2022-09-26T11:37:36.397Z,99636.19
2022-09-26T11:40:45.488Z,99629.75
2022-09-26T11:43:26.041Z,99628.19
2022-09-26T11:46:05.426Z,99626.00
2022-09-26T11:49:13.104Z,99625.78
2022-09-26T11:52:29.471Z,99628.47
2022-09-26T11:55:20.664Z,99619.63
2022-09-26T11:58:19.751Z,99615.28
2022-09-26T12:01:17.076Z,99620.22
2022-09-26T12:03:59.159Z,99613.25
2022-09-26T12:07:01.797Z,99608.53
2022-09-26T12:10:00.948Z,99614.38
2022-09-26T12:12:41.442Z,99604.28
2022-09-26T12:15:20.249Z,99607.38
2022-09-26T12:18:13.110Z,99597.69
2022-09-26T12:21:04.681Z,99591.22
2022-09-26T12:23:53.983Z,99583.22
2022-09-26T12:26:42.014Z,99567.00
2022-09-26T12:29:17.968Z,99567.63
2022-09-26T12:31:48.873Z,99569.19
2022-09-26T12:34:59.236Z,99560.78
2022-09-26T12:37:53.084Z,99559.78
2022-09-26T12:40:36.952Z,99556.41
2022-09-26T12:43:19.332Z,99552.06
2022-09-26T12:46:02.994Z,99551.41
2022-09-26T12:48:35.635Z,99553.69
2022-09-26T12:51:28.672Z,99545.38
2022-09-26T12:54:27.850Z,99544.31
2022-09-26T12:57:02.573Z,99528.66
2022-09-26T13:00:03.668Z,99538.13
2022-09-26T13:02:50.848Z,99536.34
2022-09-26T13:05:43.021Z,99542.97
2022-09-26T13:08:23.026Z,99529.53
2022-09-26T13:11:11.876Z,99530.84
2022-09-26T13:13:54.186Z,99532.00
2022-09-26T13:16:27.271Z,99528.66
2022-09-26T13:19:08.510Z,99530.00
2022-09-26T13:21:38.882Z,99537.00
2022-09-26T13:24:13.948Z,99525.13
2022-09-26T13:26:44.043Z,99532.81
2022-09-26T13:29:18.364Z,99525.31
2022-09-26T13:32:11.097Z,99517.75
2022-09-26T13:34:42.424Z,99505.00
2022-09-26T13:37:31.600Z,99520.28
2022-09-26T13:40:34.623Z,99510.78
2022-09-26T13:43:13.632Z,99509.31
2022-09-26T13:46:02.304Z,99506.88
2022-09-26T13:48:51.752Z,99503.59
2022-09-26T13:51:23.431Z,99493.09
2022-09-26T13:54:16.669Z,99481.69
2022-09-26T13:56:48.402Z,99483.91
2022-09-26T13:59:17.789Z,99479.06
2022-09-26T14:02:18.926Z,99486.41
2022-09-26T14:04:48.020Z,99479.38
2022-09-26T14:07:35.595Z,99473.69
2022-09-26T14:10:14.193Z,99464.38
2022-09-26T14:13:06.682Z,99460.03
2022-09-26T14:15:48.945Z,99461.31
2022-09-26T14:18:31.604Z,99449.34
2022-09-26T14:21:12.723Z,99449.59
2022-09-26T14:23:48.286Z,99451.38
2022-09-26T14:26:29.850Z,99449.13
2022-09-26T14:29:45.710Z,99455.13
2022-09-26T14:32:23.284Z,99435.78
2022-09-26T14:34:53.962Z,99433.38
2022-09-26T14:37:24.188Z,99432.41
2022-09-26T14:40:02.094Z,99430.50
2022-09-26T14:42:44.457Z,99422.19
2022-09-26T14:45:17.371Z,99424.19
2022-09-26T14:47:50.239Z,99420.16
2022-09-26T14:50:20.372Z,99412.66
2022-09-26T14:52:55.569Z,99420.25
2022-09-26T14:55:23.584Z,99420.16
2022-09-26T14:57:50.800Z,99420.34
2022-09-26T15:00:37.190Z,99426.16
2022-09-26T15:03:07.966Z,99429.31
2022-09-26T15:05:35.450Z,99413.31
2022-09-26T15:08:02.618Z,99426.34
2022-09-26T15:10:40.140Z,99413.66
2022-09-26T15:13:07.291Z,99417.44
2022-09-26T15:15:52.989Z,99398.03
2022-09-26T15:18:28.424Z,99397.19
2022-09-26T15:21:00.488Z,99400.44
2022-09-26T15:23:45.635Z,99401.25
2022-09-26T15:26:12.957Z,99395.78
2022-09-26T15:28:40.157Z,99402.75
2022-09-26T15:31:36.056Z,99394.13
2022-09-26T15:34:12.709Z,99399.03
2022-09-26T15:36:41.133Z,99394.84
2022-09-26T15:39:30.014Z,99397.50
2022-09-26T15:42:16.923Z,99388.69
2022-09-26T15:45:00.860Z,99390.34
2022-09-26T15:47:31.677Z,99389.28
2022-09-26T15:50:12.236Z,99392.06
2022-09-26T15:52:43.600Z,99384.09
2022-09-26T15:55:20.951Z,99378.03
2022-09-26T15:57:49.716Z,99375.53
2022-09-26T16:00:17.777Z,99377.97
2022-09-26T16:02:45.235Z,99371.78
2022-09-26T16:05:13.341Z,99374.94
2022-09-26T16:07:41.611Z,99376.41
2022-09-26T16:10:30.500Z,99369.91
2022-09-26T16:13:03.195Z,99369.03
2022-09-26T16:15:30.817Z,99366.16
2022-09-26T16:17:58.864Z,99362.97
2022-09-26T16:20:32.107Z,99358.66
2022-09-26T16:23:04.755Z,99355.34
2022-09-26T16:25:47.821Z,99362.22
2022-09-26T16:28:18.110Z,99357.72
2022-09-26T16:30:53.099Z,99354.91
2022-09-26T16:33:27.696Z,99350.06
2022-09-26T16:35:54.912Z,99349.28
2022-09-26T16:38:42.287Z,99348.06
2022-09-26T16:42:01.331Z,99343.66
2022-09-26T16:44:33.631Z,99347.16
2022-09-26T16:47:05.404Z,99340.19
2022-09-26T16:49:40.185Z,99347.97
2022-09-26T16:52:19.697Z,99347.09
2022-09-26T16:54:48.597Z,99340.28
2022-09-26T16:57:21.096Z,99336.41
2022-09-26T16:59:48.406Z,99331.41
2022-09-26T17:02:15.528Z,99329.75
2022-09-26T17:04:43.179Z,99325.72
2022-09-26T17:07:15.383Z,99331.47
2022-09-26T17:09:42.812Z,99332.09
2022-09-26T17:12:21.107Z,99327.75
2022-09-26T17:14:51.995Z,99330.84
2022-09-26T17:17:22.085Z,99333.00
2022-09-26T17:19:56.763Z,99331.75
2022-09-26T17:22:26.847Z,99331.38
2022-09-26T17:24:54.464Z,99323.44
2022-09-26T17:27:25.711Z,99327.22
2022-09-26T17:29:58.177Z,99324.72
2022-09-26T17:32:32.847Z,99322.22
2022-09-26T17:35:04.350Z,99327.81
2022-09-26T17:37:31.559Z,99334.81
2022-09-26T17:39:58.760Z,99324.66
2022-09-26T17:42:25.870Z,99315.34
2022-09-26T17:44:53.931Z,99318.84
2022-09-26T17:47:21.134Z,99314.97
2022-09-26T17:49:52.303Z,99322.53
2022-09-26T17:52:28.921Z,99311.34
2022-09-26T17:54:59.785Z,99315.00
2022-09-26T17:57:30.253Z,99316.81
2022-09-26T17:59:57.708Z,99318.22
2022-09-26T18:02:44.616Z,99317.41
2022-09-26T18:05:22.704Z,99313.50
2022-09-26T18:07:54.451Z,99302.84
2022-09-26T18:10:30.451Z,99298.81
2022-09-26T18:13:09.385Z,99308.69
2022-09-26T18:15:41.094Z,99307.47
2022-09-26T18:18:19.092Z,99296.59
2022-09-26T18:20:48.951Z,99295.47
2022-09-26T18:23:20.787Z,99301.06
2022-09-26T18:25:52.377Z,99301.75
2022-09-26T18:28:22.183Z,99303.72
2022-09-26T18:30:57.778Z,99300.50
2022-09-26T18:33:27.880Z,99295.22
2022-09-26T18:35:55.537Z,99300.78
2022-09-26T18:38:22.684Z,99299.69
2022-09-26T18:40:51.956Z,99296.91
2022-09-26T18:43:23.730Z,99297.78
2022-09-26T18:45:51.199Z,99286.38
2022-09-26T18:48:23.199Z,99292.22
2022-09-26T18:50:50.364Z,99295.03
2022-09-26T18:53:19.981Z,99289.72
2022-09-26T18:56:05.905Z,99284.28
2022-09-26T18:58:33.960Z,99298.66
2022-09-26T19:01:03.386Z,99305.63
2022-09-26T19:03:32.681Z,99293.94
2022-09-26T19:06:12.540Z,99291.88
2022-09-26T19:08:45.011Z,99294.41
2022-09-26T19:11:15.056Z,99277.84
2022-09-26T19:13:51.047Z,99283.81
2022-09-26T19:16:18.917Z,99282.16
2022-09-26T19:18:48.073Z,99277.94
2022-09-26T19:21:30.397Z,99274.78
2022-09-26T19:24:04.666Z,99270.44
2022-09-26T19:26:37.784Z,99275.47
2022-09-26T19:29:11.931Z,99269.06
2022-09-26T19:31:40.313Z,99274.91
2022-09-26T19:34:12.824Z,99266.97
2022-09-26T19:36:40.385Z,99259.75
2022-09-26T19:39:15.082Z,99257.09
2022-09-26T19:41:44.695Z,99256.41
2022-09-26T19:44:12.625Z,99252.09
2022-09-26T19:46:40.622Z,99256.69
2022-09-26T19:49:10.322Z,99255.31
2022-09-26T19:51:39.694Z,99258.38
2022-09-26T19:54:09.199Z,99256.28
2022-09-26T19:56:36.312Z,99249.75
2022-09-26T19:59:03.480Z,99248.75
2022-09-26T20:01:30.696Z,99249.63
2022-09-26T20:03:58.793Z,99246.69
2022-09-26T20:06:26.478Z,99250.84
2022-09-26T20:09:00.498Z,99239.47
2022-09-26T20:11:28.538Z,99239.75
2022-09-26T20:14:14.286Z,99237.38
2022-09-26T20:16:42.372Z,99235.16
2022-09-26T20:19:16.269Z,99230.03
2022-09-26T20:21:44.731Z,99230.44
2022-09-26T20:24:16.525Z,99238.63
2022-09-26T20:26:43.788Z,99216.78
2022-09-26T20:29:15.685Z,99215.69
2022-09-26T20:31:43.656Z,99217.63
2022-09-26T20:34:11.563Z,99216.38
2022-09-26T20:36:46.581Z,99213.56
2022-09-26T20:39:16.930Z,99215.81
2022-09-26T20:41:44.191Z,99205.94
2022-09-26T20:44:15.554Z,99201.63
2022-09-26T20:46:50.896Z,99198.84
2022-09-26T20:49:22.801Z,99203.31
2022-09-26T20:51:50.345Z,99193.16
2022-09-26T20:54:28.890Z,99191.78
2022-09-26T20:56:56.734Z,99195.94
2022-09-26T20:59:25.283Z,99190.94
2022-09-26T21:01:53.308Z,99190.25
2022-09-26T21:04:24.367Z,99181.75
2022-09-26T21:06:51.567Z,99182.31
2022-09-26T21:09:19.873Z,99177.69
2022-09-26T21:11:51.154Z,99181.31
2022-09-26T21:14:18.574Z,99169.38
2022-09-26T21:16:52.389Z,99174.13
2022-09-26T21:19:22.317Z,99166.31
2022-09-26T21:21:50.662Z,99172.59
2022-09-26T21:24:25.132Z,99170.34
2022-09-26T21:26:52.696Z,99173.13
2022-09-26T21:29:19.911Z,99167.72
2022-09-26T21:31:49.576Z,99162.47
2022-09-26T21:34:24.392Z,99162.72
2022-09-26T21:36:53.963Z,99159.41
2022-09-26T21:39:21.333Z,99157.72
2022-09-26T21:41:50.123Z,99164.41
2022-09-26T21:44:19.936Z,99160.53
2022-09-26T21:46:47.139Z,99153.84
2022-09-26T21:49:14.309Z,99147.31
2022-09-26T21:51:42.232Z,99144.13
2022-09-26T21:54:29.323Z,99140.66
2022-09-26T21:57:04.712Z,99138.28
2022-09-26T21:59:39.727Z,99135.50
2022-09-26T22:02:07.167Z,99123.41
2022-09-26T22:04:35.253Z,99123.41
2022-09-26T22:07:02.426Z,99113.00
2022-09-26T22:09:29.588Z,99115.09
2022-09-26T22:11:56.683Z,99112.28
2022-09-26T22:14:23.989Z,99106.88
2022-09-26T22:16:51.547Z,99103.53
2022-09-26T22:19:18.996Z,99106.59
2022-09-26T22:21:46.157Z,99104.66
2022-09-26T22:24:13.318Z,99100.91
2022-09-26T22:26:40.454Z,99102.00
2022-09-26T22:29:07.600Z,99093.94
2022-09-26T22:31:34.702Z,99088.53
2022-09-26T22:34:01.811Z,99076.59
2022-09-26T22:36:29.265Z,99079.78
2022-09-26T22:38:56.374Z,99072.13
2022-09-26T22:41:23.467Z,99074.50
2022-09-26T22:43:52.408Z,99069.63
2022-09-26T22:46:19.641Z,99066.16
2022-09-26T22:48:47.599Z,99068.66
2022-09-26T22:51:16.180Z,99060.44
2022-09-26T22:53:44.156Z,99048.75
2022-09-26T22:56:13.343Z,99053.06
2022-09-26T22:58:51.119Z,99055.44
2022-09-26T23:01:24.493Z,99056.25
2022-09-26T23:03:54.774Z,99052.78
2022-09-26T23:06:23.279Z,99048.75
2022-09-26T23:08:50.759Z,99040.16
2022-09-26T23:11:18.383Z,99039.03
2022-09-26T23:13:46.244Z,99026.53
2022-09-26T23:16:17.002Z,99023.03
2022-09-26T23:18:44.960Z,99018.72
2022-09-26T23:21:20.454Z,99002.34
2022-09-26T23:23:50.148Z,99002.06
2022-09-26T23:26:23.245Z,99004.16
2022-09-26T23:28:51.485Z,99004.84
2022-09-26T23:31:18.927Z,98992.91
2022-09-26T23:33:46.189Z,98995.56
2022-09-26T23:36:13.690Z,98990.28
2022-09-26T23:38:41.222Z,98990.28
2022-09-26T23:41:10.346Z,98988.19
2022-09-26T23:43:37.782Z,98984.19
2022-09-26T23:46:05.490Z,98983.22
2022-09-26T23:48:32.984Z,98981.41
2022-09-26T23:51:00.113Z,98980.13
2022-09-26T23:53:27.227Z,98974.03
2022-09-26T23:56:03.508Z,98975.69
2022-09-26T23:58:30.605Z,98975.13
